Sulphur Genesis — 9HA2898 — position and weather

sailwx.info

Track history (hours):
 
Tides and Currents Weather Stations Pressure Air Temp Water Temp Dewpoint Dewpoint Depression Visibility Wind Speed Wind Dir Waves Ship Positions

Sulphur Genesis

Last reported at 2018-Feb-25 02:01 UTC. Time now 2018-Feb-25 02:04 UTC.
Position N 57°47' E 011°19'.

Length 95 m; draft 7 m.

Type: Tanker. MMSI: 256656000.

Date/timePositionNaut miles runAvg speedWind from/ knotsBaromVisibWave heightAir tempDewpointWater temp
2018-Feb-25 02:01N 57°47' E 011°19'510.1
2018-Feb-25 01:30N 57°52' E 011°17'510.0
2018-Feb-25 01:00N 57°57' E 011°16'5 9.6
2018-Feb-25 00:30N 58°02' E 011°15'5 9.5
2018-Feb-25 00:00N 58°07' E 011°14'5 9.4
2018-Feb-24 23:30N 58°11' E 011°13'4 8.4
2018-Feb-24 23:00N 58°16' E 011°14'510.1
2018-Feb-24 22:30N 58°19' E 011°21'4 0.3
2018-Feb-24 10:53N 58°21' E 011°26'2 4.3
2018-Feb-24 10:30N 58°20' E 011°24'511.0
2018-Feb-24 10:00N 58°17' E 011°16'510.9
2018-Feb-24 09:30N 58°11' E 011°14'612.0
2018-Feb-24 09:01N 58°05' E 011°14'611.7
2018-Feb-24 08:30N 57°60' E 011°16'611.6
2018-Feb-24 08:00N 57°54' E 011°18'611.6
2018-Feb-24 07:31N 57°48' E 011°20'611.6
2018-Feb-24 07:00N 57°43' E 011°22'611.4
2018-Feb-24 06:30N 57°37' E 011°24'611.9
2018-Feb-24 06:00N 57°31' E 011°25'612.0
2018-Feb-24 05:30N 57°25' E 011°28'612.0
2018-Feb-24 05:00N 57°20' E 011°32'612.1
2018-Feb-24 04:30N 57°14' E 011°35'612.0
2018-Feb-24 04:00N 57°08' E 011°39'6310.9
2018-Feb-23 22:15N 56°10' E 012°25'312.4
2018-Feb-23 22:01N 56°09' E 012°29'612.3
2018-Feb-23 21:31N 56°05' E 012°37'510.6
2018-Feb-23 21:01N 55°60' E 012°41'1 1.9
2018-Feb-23 20:30N 56°01' E 012°43'0 0.0
2018-Feb-23 20:00N 56°01' E 012°43'0 0.0
2018-Feb-23 19:27N 56°01' E 012°43'0 0.0
2018-Feb-23 18:57N 56°01' E 012°43'0 0.0
2018-Feb-23 18:30N 56°01' E 012°43'0 0.0
2018-Feb-23 18:00N 56°01' E 012°43'0 0.0
2018-Feb-23 17:30N 56°01' E 012°43'0 0.0
2018-Feb-23 16:57N 56°01' E 012°43'0 0.0
2018-Feb-23 16:30N 56°01' E 012°43'0 0.0
2018-Feb-23 16:00N 56°01' E 012°43'0 0.0
2018-Feb-23 15:30N 56°01' E 012°43'0 0.0
2018-Feb-23 15:00N 56°01' E 012°43'0 0.0
2018-Feb-23 14:30N 56°01' E 012°43'0 0.0
2018-Feb-23 13:57N 56°01' E 012°43'0 0.0
2018-Feb-23 13:30N 56°01' E 012°43'0 0.0
2018-Feb-23 13:00N 56°01' E 012°43'0 0.0
2018-Feb-23 12:30N 56°01' E 012°43'0 0.0
2018-Feb-23 12:00N 56°01' E 012°43'0 0.0
2018-Feb-23 11:30N 56°01' E 012°43'0 0.0
2018-Feb-23 11:00N 56°01' E 012°43'0 0.0
2018-Feb-23 10:27N 56°01' E 012°43'0 0.0
2018-Feb-23 10:00N 56°01' E 012°43'0 0.0
2018-Feb-23 09:30N 56°01' E 012°43'0 0.0
2018-Feb-23 09:00N 56°01' E 012°43'0 0.7
2018-Feb-23 08:30N 56°00' E 012°43'1 2.7
2018-Feb-23 08:00N 56°00' E 012°40'5 9.4
2018-Feb-23 07:30N 56°05' E 012°36'5 9.8
2018-Feb-23 07:01N 56°08' E 012°30'4 7.4
2018-Feb-23 06:31N 56°10' E 012°24'4 7.7
2018-Feb-23 06:00N 56°12' E 012°18'65 8.0
2018-Feb-22 21:55N 57°12' E 011°34'410.0
2018-Feb-22 21:31N 57°16' E 011°32'510.1
2018-Feb-22 21:00N 57°21' E 011°28'510.2
2018-Feb-22 20:31N 57°25' E 011°25'510.2
2018-Feb-22 20:01N 57°30' E 011°23'510.2
2018-Feb-22 19:31N 57°35' E 011°22'510.3
2018-Feb-22 19:01N 57°40' E 011°20'510.4
2018-Feb-22 18:31N 57°46' E 011°19'510.1
2018-Feb-22 18:01N 57°51' E 011°18'5 9.8
2018-Feb-22 17:31N 57°55' E 011°17'5 9.6
2018-Feb-22 17:00N 58°00' E 011°16'5 9.7
2018-Feb-22 16:30N 58°05' E 011°16'5 9.8
2018-Feb-22 16:00N 58°10' E 011°15'510.8
2018-Feb-22 15:31N 58°15' E 011°13'510.1
2018-Feb-22 15:00N 58°19' E 011°20'4 8.4
2018-Feb-22 14:31N 58°21' E 011°26'0 0.0
2018-Feb-21 21:59N 58°21' E 011°26'3 5.1
2018-Feb-21 21:30N 58°20' E 011°23'611.4
2018-Feb-21 21:00N 58°16' E 011°15'4 8.8
2018-Feb-21 20:30N 58°12' E 011°11'0 0.7
2018-Feb-21 19:58N 58°12' E 011°12'0 0.0
2018-Feb-21 19:28N 58°12' E 011°12'0 0.0
2018-Feb-21 18:58N 58°12' E 011°12'0 0.0
2018-Feb-21 18:28N 58°12' E 011°12'0 0.0
2018-Feb-21 17:58N 58°12' E 011°12'0 0.0
2018-Feb-21 17:28N 58°12' E 011°12'0 0.0
2018-Feb-21 16:58N 58°12' E 011°12'0 0.0
2018-Feb-21 16:25N 58°12' E 011°12'0 0.0
2018-Feb-21 15:58N 58°12' E 011°12'0 0.0
2018-Feb-21 15:28N 58°12' E 011°12'0 0.0
2018-Feb-21 14:58N 58°12' E 011°12'0 0.0
2018-Feb-21 14:28N 58°12' E 011°12'0 0.0
2018-Feb-21 13:58N 58°12' E 011°12'0 0.0
2018-Feb-21 13:28N 58°12' E 011°12'0 0.0
2018-Feb-21 12:58N 58°12' E 011°12'0 0.0
2018-Feb-21 12:28N 58°12' E 011°12'0 0.0
2018-Feb-21 11:58N 58°12' E 011°12'0 0.0
2018-Feb-21 11:28N 58°12' E 011°12'0 0.0
2018-Feb-21 10:55N 58°12' E 011°12'0 0.0
2018-Feb-21 10:22N 58°12' E 011°12'0 0.0
2018-Feb-21 09:55N 58°12' E 011°12'0 0.0
2018-Feb-21 09:28N 58°12' E 011°12'1 2.2
2018-Feb-21 08:58N 58°11' E 011°12'612.1
2018-Feb-21 08:30N 58°05' E 011°14'611.9
2018-Feb-21 08:00N 57°59' E 011°16'611.4
2018-Feb-21 07:31N 57°54' E 011°18'611.3
2018-Feb-21 07:00N 57°48' E 011°20'611.3
2018-Feb-21 06:30N 57°43' E 011°22'611.1
2018-Feb-21 06:00N 57°37' E 011°24'611.3
2018-Feb-21 05:30N 57°31' E 011°25'611.5
2018-Feb-21 05:00N 57°26' E 011°28'611.5
2018-Feb-21 04:30N 57°20' E 011°31'611.1
2018-Feb-21 04:00N 57°15' E 011°35'611.7
2018-Feb-21 03:30N 57°10' E 011°39'612.0
2018-Feb-21 03:00N 57°04' E 011°43'5810.7
2018-Feb-20 21:37N 56°11' E 012°24'211.8
2018-Feb-20 21:28N 56°10' E 012°26'613.2
2018-Feb-20 21:00N 56°06' E 012°35'510.9
2018-Feb-20 20:30N 56°02' E 012°40'2 3.4
2018-Feb-20 20:00N 56°00' E 012°43'0 0.1
2018-Feb-20 19:30N 56°01' E 012°43'0 0.0
2018-Feb-20 19:00N 56°01' E 012°43'0 0.0
2018-Feb-20 18:30N 56°01' E 012°43'0 0.0
2018-Feb-20 18:00N 56°01' E 012°43'0 0.0
2018-Feb-20 17:30N 56°01' E 012°43'0 0.0
2018-Feb-20 17:00N 56°01' E 012°43'0 0.0
2018-Feb-20 16:30N 56°01' E 012°43'0 0.0
2018-Feb-20 16:00N 56°01' E 012°43'0 0.0
2018-Feb-20 15:30N 56°01' E 012°43'0 0.0
2018-Feb-20 14:57N 56°01' E 012°43'0 0.0
2018-Feb-20 14:30N 56°01' E 012°43'0 0.0
2018-Feb-20 14:00N 56°01' E 012°43'0 0.0
2018-Feb-20 13:30N 56°01' E 012°43'0 0.0
2018-Feb-20 13:00N 56°01' E 012°43'0 0.0
2018-Feb-20 12:30N 56°01' E 012°43'0 0.0
2018-Feb-20 12:00N 56°01' E 012°43'0 0.0
2018-Feb-20 11:24N 56°01' E 012°43'0 0.0
2018-Feb-20 11:00N 56°01' E 012°43'0 0.0
2018-Feb-20 10:30N 56°01' E 012°43'0 0.0
2018-Feb-20 10:00N 56°01' E 012°43'0 0.0
2018-Feb-20 09:30N 56°01' E 012°43'0 0.4
2018-Feb-20 09:00N 56°00' E 012°43'1 2.7
2018-Feb-20 08:30N 55°60' E 012°41'5 9.8
2018-Feb-20 08:00N 56°04' E 012°37'4 9.0
2018-Feb-20 07:30N 56°07' E 012°31'5 9.6
2018-Feb-20 07:00N 56°10' E 012°24'5 9.9
2018-Feb-20 06:31N 56°12' E 012°16'60 9.2
2018-Feb-19 23:55N 57°09' E 011°36'4 9.9
2018-Feb-19 23:31N 57°12' E 011°34'5 9.9
2018-Feb-19 23:01N 57°17' E 011°31'510.1
2018-Feb-19 22:30N 57°22' E 011°28'5 9.6
2018-Feb-19 22:00N 57°26' E 011°25'5 9.5
2018-Feb-19 21:30N 57°31' E 011°23'5 9.6
2018-Feb-19 21:00N 57°36' E 011°21'5 9.9
2018-Feb-19 20:30N 57°41' E 011°20'5 9.7
2018-Feb-19 20:00N 57°45' E 011°19'5 9.6
2018-Feb-19 19:30N 57°50' E 011°18'5 9.6
2018-Feb-19 19:00N 57°55' E 011°17'5 9.6
2018-Feb-19 18:30N 57°60' E 011°16'5 9.8
2018-Feb-19 18:01N 58°05' E 011°14'4 8.8
2018-Feb-19 17:31N 58°09' E 011°14'5 9.4
2018-Feb-19 17:01N 58°14' E 011°13'4 8.5
2018-Feb-19 16:30N 58°17' E 011°17'610.4
2018-Feb-19 15:57N 58°21' E 011°25'1 0.1
2018-Feb-19 00:38N 58°21' E 011°26'1 3.0
2018-Feb-19 00:28N 58°21' E 011°26'4 9.5
2018-Feb-19 00:00N 58°18' E 011°20'510.7
2018-Feb-18 23:30N 58°15' E 011°12'4 9.2
2018-Feb-18 23:00N 58°10' E 011°13'612.4
2018-Feb-18 22:30N 58°04' E 011°15'510.4
2018-Feb-18 22:00N 57°59' E 011°17'510.3
2018-Feb-18 21:30N 57°54' E 011°18'510.6
2018-Feb-18 21:00N 57°49' E 011°20'611.0
2018-Feb-18 20:30N 57°43' E 011°22'611.4
2018-Feb-18 20:00N 57°38' E 011°23'611.3
2018-Feb-18 19:30N 57°32' E 011°26'611.3
2018-Feb-18 19:00N 57°27' E 011°28'611.1
2018-Feb-18 18:30N 57°21' E 011°31'611.0
2018-Feb-18 18:00N 57°16' E 011°34'510.9
2018-Feb-18 17:30N 57°11' E 011°38'6410.8
2018-Feb-18 11:37N 56°12' E 012°21'111.2
2018-Feb-18 11:29N 56°11' E 012°23'611.7
2018-Feb-18 11:00N 56°08' E 012°31'611.9
2018-Feb-18 10:30N 56°04' E 012°39'510.0
2018-Feb-18 10:01N 55°59' E 012°43'1 2.4
2018-Feb-18 09:28N 56°01' E 012°43'0 0.0
2018-Feb-18 08:55N 56°01' E 012°43'0 0.0
2018-Feb-18 08:28N 56°01' E 012°43'0 0.0
2018-Feb-18 07:58N 56°01' E 012°43'0 0.0
2018-Feb-18 07:28N 56°01' E 012°43'0 0.0
2018-Feb-18 06:58N 56°01' E 012°43'0 0.0
2018-Feb-18 06:28N 56°01' E 012°43'0 0.0
2018-Feb-18 05:58N 56°01' E 012°43'0 0.0
2018-Feb-18 05:28N 56°01' E 012°43'0 0.0
2018-Feb-18 04:58N 56°01' E 012°43'0 0.0
2018-Feb-18 04:28N 56°01' E 012°43'0 0.0
2018-Feb-18 03:58N 56°01' E 012°43'0 0.0
2018-Feb-18 03:28N 56°01' E 012°43'0 0.0
2018-Feb-18 02:58N 56°01' E 012°43'0 0.0
2018-Feb-18 02:28N 56°01' E 012°43'0 0.0
2018-Feb-18 01:58N 56°01' E 012°43'0 0.0
2018-Feb-18 01:28N 56°01' E 012°43'0 0.0
2018-Feb-18 00:58N 56°01' E 012°43'0 0.0
2018-Feb-18 00:28N 56°01' E 012°43'0 0.0
2018-Feb-17 23:58N 56°01' E 012°43'0 0.0
2018-Feb-17 23:28N 56°01' E 012°43'0 0.3
2018-Feb-17 23:00N 56°00' E 012°43'2 3.8
2018-Feb-17 22:31N 55°59' E 012°41'510.9
2018-Feb-17 22:00N 56°04' E 012°38'510.9
2018-Feb-17 21:30N 56°07' E 012°30'510.4
2018-Feb-17 21:00N 56°10' E 012°22'510.9
2018-Feb-17 20:30N 56°13' E 012°14'5810.2
2018-Feb-17 14:50N 57°08' E 011°38'3 9.9
2018-Feb-17 14:30N 57°11' E 011°35'510.0
2018-Feb-17 14:00N 57°15' E 011°32'5 9.6
2018-Feb-17 13:30N 57°20' E 011°29'5 9.3
2018-Feb-17 13:00N 57°24' E 011°27'5 9.4
2018-Feb-17 12:31N 57°29' E 011°24'5 9.4
2018-Feb-17 12:00N 57°33' E 011°22'5 9.5
2018-Feb-17 11:30N 57°38' E 011°21'5 9.5
2018-Feb-17 11:01N 57°43' E 011°20'5 9.8
2018-Feb-17 10:30N 57°48' E 011°19'510.1
2018-Feb-17 10:00N 57°53' E 011°17'4 8.8
2018-Feb-17 09:30N 57°57' E 011°16'4 7.9
2018-Feb-17 09:00N 58°01' E 011°15'4 7.8
2018-Feb-17 08:30N 58°05' E 011°14'4 7.9
2018-Feb-17 08:00N 58°09' E 011°13'4 8.4
2018-Feb-17 07:30N 58°13' E 011°12'4 8.7
2018-Feb-17 07:00N 58°17' E 011°16'510.3
2018-Feb-17 06:30N 58°20' E 011°23'2 0.1
2018-Feb-16 14:50N 58°21' E 011°26'1 2.8
2018-Feb-16 14:29N 58°21' E 011°24'510.5
2018-Feb-16 14:00N 58°17' E 011°18'611.1
2018-Feb-16 13:31N 58°14' E 011°10'5 9.8
2018-Feb-16 13:00N 58°12' E 011°01'3 5.6
2018-Feb-16 12:30N 58°11' E 010°57'3 5.7
2018-Feb-16 12:00N 58°10' E 010°52'3 5.7
2018-Feb-16 11:30N 58°08' E 010°47'3 5.9
2018-Feb-16 11:00N 58°07' E 010°42'1410.0
2018-Feb-16 09:36N 58°01' E 010°18'110.7
2018-Feb-16 09:30N 58°01' E 010°16'711.1
2018-Feb-16 08:52N 57°57' E 010°04'  
Track history (hours):
 
Tides and Currents Weather Stations Pressure Air Temp Water Temp Dewpoint Dewpoint Depression Visibility Wind Speed Wind Dir Waves Ship Positions

Sulphur Genesis

Last reported at 2018-Feb-25 02:01 UTC. Time now 2018-Feb-25 02:04 UTC.
Position N 57°47' E 011°19'.

Length 95 m; draft 7 m.

Type: Tanker. MMSI: 256656000.

Date/timePositionNaut miles runAvg speedWind from/ knotsBaromVisibWave heightAir tempDewpointWater temp
2018-Feb-25 02:01N 57°47' E 011°19'510.1
2018-Feb-25 01:30N 57°52' E 011°17'510.0
2018-Feb-25 01:00N 57°57' E 011°16'5 9.6
2018-Feb-25 00:30N 58°02' E 011°15'5 9.5
2018-Feb-25 00:00N 58°07' E 011°14'5 9.4
2018-Feb-24 23:30N 58°11' E 011°13'4 8.4
2018-Feb-24 23:00N 58°16' E 011°14'510.1
2018-Feb-24 22:30N 58°19' E 011°21'4 0.3
2018-Feb-24 10:53N 58°21' E 011°26'2 4.3
2018-Feb-24 10:30N 58°20' E 011°24'511.0
2018-Feb-24 10:00N 58°17' E 011°16'510.9
2018-Feb-24 09:30N 58°11' E 011°14'612.0
2018-Feb-24 09:01N 58°05' E 011°14'611.7
2018-Feb-24 08:30N 57°60' E 011°16'611.6
2018-Feb-24 08:00N 57°54' E 011°18'611.6
2018-Feb-24 07:31N 57°48' E 011°20'611.6
2018-Feb-24 07:00N 57°43' E 011°22'611.4
2018-Feb-24 06:30N 57°37' E 011°24'611.9
2018-Feb-24 06:00N 57°31' E 011°25'612.0
2018-Feb-24 05:30N 57°25' E 011°28'612.0
2018-Feb-24 05:00N 57°20' E 011°32'612.1
2018-Feb-24 04:30N 57°14' E 011°35'612.0
2018-Feb-24 04:00N 57°08' E 011°39'6310.9
2018-Feb-23 22:15N 56°10' E 012°25'312.4
2018-Feb-23 22:01N 56°09' E 012°29'612.3
2018-Feb-23 21:31N 56°05' E 012°37'510.6
2018-Feb-23 21:01N 55°60' E 012°41'1 1.9
2018-Feb-23 20:30N 56°01' E 012°43'0 0.0
2018-Feb-23 20:00N 56°01' E 012°43'0 0.0
2018-Feb-23 19:27N 56°01' E 012°43'0 0.0
2018-Feb-23 18:57N 56°01' E 012°43'0 0.0
2018-Feb-23 18:30N 56°01' E 012°43'0 0.0
2018-Feb-23 18:00N 56°01' E 012°43'0 0.0
2018-Feb-23 17:30N 56°01' E 012°43'0 0.0
2018-Feb-23 16:57N 56°01' E 012°43'0 0.0
2018-Feb-23 16:30N 56°01' E 012°43'0 0.0
2018-Feb-23 16:00N 56°01' E 012°43'0 0.0
2018-Feb-23 15:30N 56°01' E 012°43'0 0.0
2018-Feb-23 15:00N 56°01' E 012°43'0 0.0
2018-Feb-23 14:30N 56°01' E 012°43'0 0.0
2018-Feb-23 13:57N 56°01' E 012°43'0 0.0
2018-Feb-23 13:30N 56°01' E 012°43'0 0.0
2018-Feb-23 13:00N 56°01' E 012°43'0 0.0
2018-Feb-23 12:30N 56°01' E 012°43'0 0.0
2018-Feb-23 12:00N 56°01' E 012°43'0 0.0
2018-Feb-23 11:30N 56°01' E 012°43'0 0.0
2018-Feb-23 11:00N 56°01' E 012°43'0 0.0
2018-Feb-23 10:27N 56°01' E 012°43'0 0.0
2018-Feb-23 10:00N 56°01' E 012°43'0 0.0
2018-Feb-23 09:30N 56°01' E 012°43'0 0.0
2018-Feb-23 09:00N 56°01' E 012°43'0 0.7
2018-Feb-23 08:30N 56°00' E 012°43'1 2.7
2018-Feb-23 08:00N 56°00' E 012°40'5 9.4
2018-Feb-23 07:30N 56°05' E 012°36'5 9.8
2018-Feb-23 07:01N 56°08' E 012°30'4 7.4
2018-Feb-23 06:31N 56°10' E 012°24'4 7.7
2018-Feb-23 06:00N 56°12' E 012°18'65 8.0
2018-Feb-22 21:55N 57°12' E 011°34'410.0
2018-Feb-22 21:31N 57°16' E 011°32'510.1
2018-Feb-22 21:00N 57°21' E 011°28'510.2
2018-Feb-22 20:31N 57°25' E 011°25'510.2
2018-Feb-22 20:01N 57°30' E 011°23'510.2
2018-Feb-22 19:31N 57°35' E 011°22'510.3
2018-Feb-22 19:01N 57°40' E 011°20'510.4
2018-Feb-22 18:31N 57°46' E 011°19'510.1
2018-Feb-22 18:01N 57°51' E 011°18'5 9.8
2018-Feb-22 17:31N 57°55' E 011°17'5 9.6
2018-Feb-22 17:00N 58°00' E 011°16'5 9.7
2018-Feb-22 16:30N 58°05' E 011°16'5 9.8
2018-Feb-22 16:00N 58°10' E 011°15'510.8
2018-Feb-22 15:31N 58°15' E 011°13'510.1
2018-Feb-22 15:00N 58°19' E 011°20'4 8.4
2018-Feb-22 14:31N 58°21' E 011°26'0 0.0
2018-Feb-21 21:59N 58°21' E 011°26'3 5.1
2018-Feb-21 21:30N 58°20' E 011°23'611.4
2018-Feb-21 21:00N 58°16' E 011°15'4 8.8
2018-Feb-21 20:30N 58°12' E 011°11'0 0.7
2018-Feb-21 19:58N 58°12' E 011°12'0 0.0
2018-Feb-21 19:28N 58°12' E 011°12'0 0.0
2018-Feb-21 18:58N 58°12' E 011°12'0 0.0
2018-Feb-21 18:28N 58°12' E 011°12'0 0.0
2018-Feb-21 17:58N 58°12' E 011°12'0 0.0
2018-Feb-21 17:28N 58°12' E 011°12'0 0.0
2018-Feb-21 16:58N 58°12' E 011°12'0 0.0
2018-Feb-21 16:25N 58°12' E 011°12'0 0.0
2018-Feb-21 15:58N 58°12' E 011°12'0 0.0
2018-Feb-21 15:28N 58°12' E 011°12'0 0.0
2018-Feb-21 14:58N 58°12' E 011°12'0 0.0
2018-Feb-21 14:28N 58°12' E 011°12'0 0.0
2018-Feb-21 13:58N 58°12' E 011°12'0 0.0
2018-Feb-21 13:28N 58°12' E 011°12'0 0.0
2018-Feb-21 12:58N 58°12' E 011°12'0 0.0
2018-Feb-21 12:28N 58°12' E 011°12'0 0.0
2018-Feb-21 11:58N 58°12' E 011°12'0 0.0
2018-Feb-21 11:28N 58°12' E 011°12'0 0.0
2018-Feb-21 10:55N 58°12' E 011°12'0 0.0
2018-Feb-21 10:22N 58°12' E 011°12'0 0.0
2018-Feb-21 09:55N 58°12' E 011°12'0 0.0
2018-Feb-21 09:28N 58°12' E 011°12'1 2.2
2018-Feb-21 08:58N 58°11' E 011°12'612.1
2018-Feb-21 08:30N 58°05' E 011°14'611.9
2018-Feb-21 08:00N 57°59' E 011°16'611.4
2018-Feb-21 07:31N 57°54' E 011°18'611.3
2018-Feb-21 07:00N 57°48' E 011°20'611.3
2018-Feb-21 06:30N 57°43' E 011°22'611.1
2018-Feb-21 06:00N 57°37' E 011°24'611.3
2018-Feb-21 05:30N 57°31' E 011°25'611.5
2018-Feb-21 05:00N 57°26' E 011°28'611.5
2018-Feb-21 04:30N 57°20' E 011°31'611.1
2018-Feb-21 04:00N 57°15' E 011°35'611.7
2018-Feb-21 03:30N 57°10' E 011°39'612.0
2018-Feb-21 03:00N 57°04' E 011°43'5810.7
2018-Feb-20 21:37N 56°11' E 012°24'211.8
2018-Feb-20 21:28N 56°10' E 012°26'613.2
2018-Feb-20 21:00N 56°06' E 012°35'510.9
2018-Feb-20 20:30N 56°02' E 012°40'2 3.4
2018-Feb-20 20:00N 56°00' E 012°43'0 0.1
2018-Feb-20 19:30N 56°01' E 012°43'0 0.0
2018-Feb-20 19:00N 56°01' E 012°43'0 0.0
2018-Feb-20 18:30N 56°01' E 012°43'0 0.0
2018-Feb-20 18:00N 56°01' E 012°43'0 0.0
2018-Feb-20 17:30N 56°01' E 012°43'0 0.0
2018-Feb-20 17:00N 56°01' E 012°43'0 0.0
2018-Feb-20 16:30N 56°01' E 012°43'0 0.0
2018-Feb-20 16:00N 56°01' E 012°43'0 0.0
2018-Feb-20 15:30N 56°01' E 012°43'0 0.0
2018-Feb-20 14:57N 56°01' E 012°43'0 0.0
2018-Feb-20 14:30N 56°01' E 012°43'0 0.0
2018-Feb-20 14:00N 56°01' E 012°43'0 0.0
2018-Feb-20 13:30N 56°01' E 012°43'0 0.0
2018-Feb-20 13:00N 56°01' E 012°43'0 0.0
2018-Feb-20 12:30N 56°01' E 012°43'0 0.0
2018-Feb-20 12:00N 56°01' E 012°43'0 0.0
2018-Feb-20 11:24N 56°01' E 012°43'0 0.0
2018-Feb-20 11:00N 56°01' E 012°43'0 0.0
2018-Feb-20 10:30N 56°01' E 012°43'0 0.0
2018-Feb-20 10:00N 56°01' E 012°43'0 0.0
2018-Feb-20 09:30N 56°01' E 012°43'0 0.4
2018-Feb-20 09:00N 56°00' E 012°43'1 2.7
2018-Feb-20 08:30N 55°60' E 012°41'5 9.8
2018-Feb-20 08:00N 56°04' E 012°37'4 9.0
2018-Feb-20 07:30N 56°07' E 012°31'5 9.6
2018-Feb-20 07:00N 56°10' E 012°24'5 9.9
2018-Feb-20 06:31N 56°12' E 012°16'60 9.2
2018-Feb-19 23:55N 57°09' E 011°36'4 9.9
2018-Feb-19 23:31N 57°12' E 011°34'5 9.9
2018-Feb-19 23:01N 57°17' E 011°31'510.1
2018-Feb-19 22:30N 57°22' E 011°28'5 9.6
2018-Feb-19 22:00N 57°26' E 011°25'5 9.5
2018-Feb-19 21:30N 57°31' E 011°23'5 9.6
2018-Feb-19 21:00N 57°36' E 011°21'5 9.9
2018-Feb-19 20:30N 57°41' E 011°20'5 9.7
2018-Feb-19 20:00N 57°45' E 011°19'5 9.6
2018-Feb-19 19:30N 57°50' E 011°18'5 9.6
2018-Feb-19 19:00N 57°55' E 011°17'5 9.6
2018-Feb-19 18:30N 57°60' E 011°16'5 9.8
2018-Feb-19 18:01N 58°05' E 011°14'4 8.8
2018-Feb-19 17:31N 58°09' E 011°14'5 9.4
2018-Feb-19 17:01N 58°14' E 011°13'4 8.5
2018-Feb-19 16:30N 58°17' E 011°17'610.4
2018-Feb-19 15:57N 58°21' E 011°25'1 0.1
2018-Feb-19 00:38N 58°21' E 011°26'1 3.0
2018-Feb-19 00:28N 58°21' E 011°26'4 9.5
2018-Feb-19 00:00N 58°18' E 011°20'510.7
2018-Feb-18 23:30N 58°15' E 011°12'4 9.2
2018-Feb-18 23:00N 58°10' E 011°13'612.4
2018-Feb-18 22:30N 58°04' E 011°15'510.4
2018-Feb-18 22:00N 57°59' E 011°17'510.3
2018-Feb-18 21:30N 57°54' E 011°18'510.6
2018-Feb-18 21:00N 57°49' E 011°20'611.0
2018-Feb-18 20:30N 57°43' E 011°22'611.4
2018-Feb-18 20:00N 57°38' E 011°23'611.3
2018-Feb-18 19:30N 57°32' E 011°26'611.3
2018-Feb-18 19:00N 57°27' E 011°28'611.1
2018-Feb-18 18:30N 57°21' E 011°31'611.0
2018-Feb-18 18:00N 57°16' E 011°34'510.9
2018-Feb-18 17:30N 57°11' E 011°38'6410.8
2018-Feb-18 11:37N 56°12' E 012°21'111.2
2018-Feb-18 11:29N 56°11' E 012°23'611.7
2018-Feb-18 11:00N 56°08' E 012°31'611.9
2018-Feb-18 10:30N 56°04' E 012°39'510.0
2018-Feb-18 10:01N 55°59' E 012°43'1 2.4
2018-Feb-18 09:28N 56°01' E 012°43'0 0.0
2018-Feb-18 08:55N 56°01' E 012°43'0 0.0
2018-Feb-18 08:28N 56°01' E 012°43'0 0.0
2018-Feb-18 07:58N 56°01' E 012°43'0 0.0
2018-Feb-18 07:28N 56°01' E 012°43'0 0.0
2018-Feb-18 06:58N 56°01' E 012°43'0 0.0
2018-Feb-18 06:28N 56°01' E 012°43'0 0.0
2018-Feb-18 05:58N 56°01' E 012°43'0 0.0
2018-Feb-18 05:28N 56°01' E 012°43'0 0.0
2018-Feb-18 04:58N 56°01' E 012°43'0 0.0
2018-Feb-18 04:28N 56°01' E 012°43'0 0.0
2018-Feb-18 03:58N 56°01' E 012°43'0 0.0
2018-Feb-18 03:28N 56°01' E 012°43'0 0.0
2018-Feb-18 02:58N 56°01' E 012°43'0 0.0
2018-Feb-18 02:28N 56°01' E 012°43'0 0.0
2018-Feb-18 01:58N 56°01' E 012°43'0 0.0
2018-Feb-18 01:28N 56°01' E 012°43'0 0.0
2018-Feb-18 00:58N 56°01' E 012°43'0 0.0
2018-Feb-18 00:28N 56°01' E 012°43'0 0.0
2018-Feb-17 23:58N 56°01' E 012°43'0 0.0
2018-Feb-17 23:28N 56°01' E 012°43'0 0.3
2018-Feb-17 23:00N 56°00' E 012°43'2 3.8
2018-Feb-17 22:31N 55°59' E 012°41'510.9
2018-Feb-17 22:00N 56°04' E 012°38'510.9
2018-Feb-17 21:30N 56°07' E 012°30'510.4
2018-Feb-17 21:00N 56°10' E 012°22'510.9
2018-Feb-17 20:30N 56°13' E 012°14'5810.2
2018-Feb-17 14:50N 57°08' E 011°38'3 9.9
2018-Feb-17 14:30N 57°11' E 011°35'510.0
2018-Feb-17 14:00N 57°15' E 011°32'5 9.6
2018-Feb-17 13:30N 57°20' E 011°29'5 9.3
2018-Feb-17 13:00N 57°24' E 011°27'5 9.4
2018-Feb-17 12:31N 57°29' E 011°24'5 9.4
2018-Feb-17 12:00N 57°33' E 011°22'5 9.5
2018-Feb-17 11:30N 57°38' E 011°21'5 9.5
2018-Feb-17 11:01N 57°43' E 011°20'5 9.8
2018-Feb-17 10:30N 57°48' E 011°19'510.1
2018-Feb-17 10:00N 57°53' E 011°17'4 8.8
2018-Feb-17 09:30N 57°57' E 011°16'4 7.9
2018-Feb-17 09:00N 58°01' E 011°15'4 7.8
2018-Feb-17 08:30N 58°05' E 011°14'4 7.9
2018-Feb-17 08:00N 58°09' E 011°13'4 8.4
2018-Feb-17 07:30N 58°13' E 011°12'4 8.7
2018-Feb-17 07:00N 58°17' E 011°16'510.3
2018-Feb-17 06:30N 58°20' E 011°23'2 0.1
2018-Feb-16 14:50N 58°21' E 011°26'1 2.8
2018-Feb-16 14:29N 58°21' E 011°24'510.5
2018-Feb-16 14:00N 58°17' E 011°18'611.1
2018-Feb-16 13:31N 58°14' E 011°10'5 9.8
2018-Feb-16 13:00N 58°12' E 011°01'3 5.6
2018-Feb-16 12:30N 58°11' E 010°57'3 5.7
2018-Feb-16 12:00N 58°10' E 010°52'3 5.7
2018-Feb-16 11:30N 58°08' E 010°47'3 5.9
2018-Feb-16 11:00N 58°07' E 010°42'1410.0
2018-Feb-16 09:36N 58°01' E 010°18'110.7
2018-Feb-16 09:30N 58°01' E 010°16'711.1
2018-Feb-16 08:52N 57°57' E 010°04'  

Dump ship's entire track history